createdAt,value
2023-02-21T00:03:10.241Z,3.60
2023-02-21T00:06:51.216Z,1.60
2023-02-21T00:10:51.597Z,2.30
2023-02-21T00:14:32.726Z,3.30
2023-02-21T00:18:16.891Z,3.80
2023-02-21T00:21:58.918Z,3.10
2023-02-21T00:25:41.168Z,3.20
2023-02-21T00:29:42.949Z,1.70
2023-02-21T00:33:46.071Z,1.70
2023-02-21T00:37:48.154Z,2.00
2023-02-21T00:41:49.981Z,1.60
2023-02-21T00:45:51.454Z,2.20
2023-02-21T00:49:51.239Z,0.80
2023-02-21T00:53:32.262Z,3.50
2023-02-21T00:57:14.073Z,2.30
2023-02-21T01:00:55.696Z,2.80
2023-02-21T01:04:39.027Z,2.10
2023-02-21T01:08:22.335Z,1.20
2023-02-21T01:12:03.693Z,1.80
2023-02-21T01:15:45.479Z,1.70
2023-02-21T01:19:46.799Z,1.20
2023-02-21T01:23:27.540Z,1.80
2023-02-21T01:27:27.690Z,1.30
2023-02-21T01:31:09.131Z,1.00
2023-02-21T01:34:50.372Z,1.00
2023-02-21T01:38:52.504Z,2.60
2023-02-21T01:42:33.276Z,1.70
2023-02-21T01:46:15.529Z,1.70
2023-02-21T01:49:59.820Z,2.60
2023-02-21T01:54:02.041Z,1.70
2023-02-21T01:58:04.763Z,1.00
2023-02-21T02:02:10.818Z,0.90
2023-02-21T02:05:52.274Z,1.40
2023-02-21T02:09:38.803Z,1.10
2023-02-21T02:13:40.861Z,4.00
2023-02-21T02:17:16.734Z,3.30
2023-02-21T02:20:59.336Z,1.50
2023-02-21T02:25:05.384Z,2.10
2023-02-21T02:29:03.411Z,1.70
2023-02-21T02:33:22.817Z,2.20
2023-02-21T02:37:43.153Z,3.90
2023-02-21T02:41:42.633Z,1.10
2023-02-21T02:45:36.985Z,5.50
2023-02-21T02:49:08.752Z,1.80
2023-02-21T02:52:39.458Z,1.50
2023-02-21T02:56:36.296Z,1.10
2023-02-21T03:00:18.719Z,1.60
2023-02-21T03:04:33.561Z,2.70
2023-02-21T03:08:15.026Z,1.00
2023-02-21T03:12:14.215Z,1.10
2023-02-21T03:16:03.952Z,1.20
2023-02-21T03:19:47.920Z,1.90
2023-02-21T03:23:17.370Z,1.90
2023-02-21T03:27:09.415Z,1.50
2023-02-21T03:30:51.170Z,1.60
2023-02-21T03:34:24.692Z,1.80
2023-02-21T03:38:02.229Z,2.60
2023-02-21T03:41:59.667Z,1.60
2023-02-21T03:45:42.328Z,2.40
2023-02-21T03:49:32.549Z,2.10
2023-02-21T03:52:55.359Z,2.00
2023-02-21T03:56:51.705Z,2.00
2023-02-21T04:00:21.078Z,1.80
2023-02-21T04:03:59.077Z,3.20
2023-02-21T04:07:55.600Z,2.60
2023-02-21T04:11:22.311Z,1.90
2023-02-21T04:15:16.753Z,2.00
2023-02-21T04:18:40.028Z,0.90
2023-02-21T04:22:17.391Z,2.30
2023-02-21T04:26:14.109Z,1.30
2023-02-21T04:29:41.654Z,1.70
2023-02-21T04:33:19.394Z,1.20
2023-02-21T04:37:15.922Z,1.40
2023-02-21T04:40:40.616Z,1.30
2023-02-21T04:44:40.257Z,1.20
2023-02-21T04:48:28.161Z,1.40
2023-02-21T04:52:10.380Z,3.00
2023-02-21T04:55:53.864Z,1.50
2023-02-21T04:59:35.084Z,3.50
2023-02-21T05:03:17.603Z,0.60
2023-02-21T05:06:42.038Z,1.20
2023-02-21T05:10:45.254Z,1.50
2023-02-21T05:14:07.755Z,1.30
2023-02-21T05:18:06.587Z,0.80
2023-02-21T05:21:29.688Z,1.80
2023-02-21T05:25:19.995Z,0.80
2023-02-21T05:28:46.844Z,1.20
2023-02-21T05:32:25.736Z,0.70
2023-02-21T05:36:24.729Z,3.00
2023-02-21T05:39:48.351Z,2.30
2023-02-21T05:43:30.938Z,1.20
2023-02-21T05:47:04.454Z,1.30
2023-02-21T05:50:59.459Z,1.60
2023-02-21T05:54:22.823Z,1.30
2023-02-21T05:57:59.366Z,1.80
2023-02-21T06:01:37.564Z,0.90
2023-02-21T06:05:35.022Z,1.20
2023-02-21T06:09:18.718Z,1.90
2023-02-21T06:13:02.395Z,2.00
2023-02-21T06:16:47.766Z,1.80
2023-02-21T06:20:14.885Z,2.10
2023-02-21T06:23:49.014Z,1.80
2023-02-21T06:27:45.939Z,1.20
2023-02-21T06:31:28.480Z,1.60
2023-02-21T06:34:56.226Z,2.00
2023-02-21T06:38:52.741Z,1.00
2023-02-21T06:42:16.745Z,1.10
2023-02-21T06:46:19.666Z,2.00
2023-02-21T06:49:42.466Z,1.20
2023-02-21T06:53:19.601Z,1.80
2023-02-21T06:57:01.046Z,1.50
2023-02-21T07:00:58.548Z,1.80
2023-02-21T07:04:23.314Z,2.00
2023-02-21T07:07:58.431Z,1.50
2023-02-21T07:11:38.193Z,4.10
2023-02-21T07:15:14.159Z,2.00
2023-02-21T07:19:15.137Z,2.20
2023-02-21T07:22:56.813Z,2.80
2023-02-21T07:26:39.457Z,1.30
2023-02-21T07:30:02.669Z,1.40
2023-02-21T07:33:59.625Z,1.40
2023-02-21T07:37:22.816Z,1.60
2023-02-21T07:41:18.941Z,3.60
2023-02-21T07:45:00.463Z,2.60
2023-02-21T07:48:41.339Z,2.20
2023-02-21T07:52:03.533Z,2.00
2023-02-21T07:55:41.056Z,1.70
2023-02-21T07:59:18.861Z,2.60
2023-02-21T08:02:56.493Z,2.80
2023-02-21T08:06:59.174Z,2.80
2023-02-21T08:10:25.139Z,2.50
2023-02-21T08:14:18.149Z,3.30
2023-02-21T08:17:59.027Z,3.30
2023-02-21T08:21:45.874Z,3.70
2023-02-21T08:25:14.303Z,2.50
2023-02-21T08:29:04.969Z,2.00
2023-02-21T08:32:50.809Z,3.10
2023-02-21T08:36:12.923Z,4.90
2023-02-21T08:40:10.203Z,3.30
2023-02-21T08:43:53.938Z,2.80
2023-02-21T08:47:35.755Z,3.10
2023-02-21T08:51:17.592Z,2.60
2023-02-21T08:54:40.537Z,3.10
2023-02-21T08:58:18.124Z,6.40
2023-02-21T09:01:55.860Z,3.60
2023-02-21T09:05:53.643Z,3.20
2023-02-21T09:09:39.030Z,4.10
2023-02-21T09:13:04.555Z,4.60
2023-02-21T09:16:39.171Z,3.60
2023-02-21T09:20:20.926Z,6.20
2023-02-21T09:23:56.726Z,4.30
2023-02-21T09:27:37.725Z,3.70
2023-02-21T09:31:28.304Z,7.10
2023-02-21T09:34:53.635Z,2.60
2023-02-21T09:38:46.907Z,4.60
2023-02-21T09:42:17.669Z,2.90
2023-02-21T09:46:38.476Z,3.50
2023-02-21T09:50:05.984Z,1.50
2023-02-21T09:53:42.702Z,2.20
2023-02-21T09:57:36.291Z,2.60
2023-02-21T10:01:40.384Z,1.70
2023-02-21T10:05:07.748Z,2.20
2023-02-21T10:09:02.186Z,2.40
2023-02-21T10:13:12.378Z,2.60
2023-02-21T10:17:02.105Z,1.40
2023-02-21T10:20:51.921Z,1.40
2023-02-21T10:24:33.880Z,3.70
2023-02-21T10:27:57.460Z,3.50
2023-02-21T10:32:00.117Z,3.60
2023-02-21T10:35:23.748Z,3.10
2023-02-21T10:39:27.626Z,2.40
2023-02-21T10:42:54.774Z,4.30
2023-02-21T10:46:55.177Z,1.60
2023-02-21T10:51:05.693Z,3.40
2023-02-21T10:55:33.176Z,1.10
2023-02-21T10:59:01.765Z,1.10
2023-02-21T11:03:00.278Z,1.80
2023-02-21T11:06:27.935Z,3.50
2023-02-21T11:10:00.637Z,3.70
2023-02-21T11:14:21.624Z,1.60
2023-02-21T11:18:05.502Z,1.70
2023-02-21T11:21:58.656Z,2.00
2023-02-21T11:25:40.825Z,1.00
2023-02-21T11:29:25.264Z,2.20
2023-02-21T11:33:08.594Z,1.90
2023-02-21T11:36:49.969Z,1.00
2023-02-21T11:40:23.968Z,2.80
2023-02-21T11:43:53.536Z,3.10
2023-02-21T11:47:36.521Z,2.80
2023-02-21T11:51:24.857Z,2.10
2023-02-21T11:54:47.958Z,1.50
2023-02-21T11:59:05.184Z,2.30
2023-02-21T12:02:50.533Z,1.30
2023-02-21T12:06:50.047Z,1.10
2023-02-21T12:10:41.797Z,1.50
2023-02-21T12:14:46.068Z,2.30
2023-02-21T12:18:39.642Z,2.90
2023-02-21T12:22:28.626Z,3.00
2023-02-21T12:26:04.680Z,1.90
2023-02-21T12:30:14.224Z,4.40
2023-02-21T12:34:23.208Z,3.10
2023-02-21T12:38:11.990Z,1.90
2023-02-21T12:42:05.261Z,2.50
2023-02-21T12:46:24.080Z,2.10
2023-02-21T12:50:03.677Z,1.90
2023-02-21T12:53:46.385Z,2.40
2023-02-21T12:57:50.467Z,2.10
2023-02-21T13:01:20.862Z,2.30
2023-02-21T13:05:18.693Z,1.70
2023-02-21T13:09:15.200Z,1.50
2023-02-21T13:13:15.113Z,1.60
2023-02-21T13:16:39.235Z,2.30
2023-02-21T13:20:21.501Z,2.10
2023-02-21T13:24:55.047Z,1.00
2023-02-21T13:28:38.149Z,2.70
2023-02-21T13:32:19.730Z,2.20
2023-02-21T13:36:01.045Z,2.90
2023-02-21T13:39:54.199Z,1.90
2023-02-21T13:43:29.171Z,2.10
2023-02-21T13:47:17.333Z,2.80
2023-02-21T13:50:39.580Z,2.50
2023-02-21T13:54:24.824Z,1.40
2023-02-21T13:57:57.484Z,1.70
2023-02-21T14:01:51.865Z,0.90
2023-02-21T14:05:19.640Z,2.90
2023-02-21T14:09:17.120Z,1.80
2023-02-21T14:12:51.146Z,2.10
2023-02-21T14:17:01.505Z,1.10
2023-02-21T14:20:42.318Z,1.70
2023-02-21T14:24:29.361Z,1.90
2023-02-21T14:27:55.082Z,4.60
2023-02-21T14:31:57.485Z,3.90
2023-02-21T14:35:49.654Z,3.20
2023-02-21T14:39:11.787Z,1.70
2023-02-21T14:43:26.301Z,2.70
2023-02-21T14:47:16.950Z,3.50
2023-02-21T14:51:36.342Z,2.80
2023-02-21T14:55:44.689Z,6.60
2023-02-21T14:59:15.731Z,7.60
2023-02-21T15:02:44.303Z,3.90
2023-02-21T15:06:44.863Z,6.20
2023-02-21T15:10:15.663Z,6.60
2023-02-21T15:13:44.790Z,5.40
2023-02-21T15:17:25.745Z,6.40
2023-02-21T15:21:19.828Z,7.30
2023-02-21T15:24:42.684Z,4.70
2023-02-21T15:28:31.725Z,5.10
2023-02-21T15:31:58.465Z,9.80
2023-02-21T15:35:43.049Z,6.70
2023-02-21T15:39:23.927Z,7.80
2023-02-21T15:42:52.765Z,5.50
2023-02-21T15:46:37.999Z,8.20
2023-02-21T15:50:36.662Z,11.60
2023-02-21T15:54:17.730Z,9.50
2023-02-21T15:58:13.087Z,8.70
2023-02-21T16:02:10.508Z,14.50
2023-02-21T16:05:52.071Z,7.70
2023-02-21T16:09:14.188Z,15.10
2023-02-21T16:12:58.342Z,14.40
2023-02-21T16:16:55.602Z,13.10
2023-02-21T16:20:39.954Z,10.70
2023-02-21T16:24:34.900Z,6.10
2023-02-21T16:28:00.314Z,13.40
2023-02-21T16:31:54.254Z,14.50
2023-02-21T16:35:35.144Z,9.80
2023-02-21T16:39:15.898Z,14.80
2023-02-21T16:43:00.390Z,13.80
2023-02-21T16:46:29.804Z,7.50
2023-02-21T16:50:00.681Z,9.20
2023-02-21T16:53:57.319Z,11.20
2023-02-21T16:57:38.615Z,14.80
2023-02-21T17:01:20.657Z,15.20
2023-02-21T17:04:43.596Z,14.00
2023-02-21T17:08:39.980Z,8.30
2023-02-21T17:12:22.680Z,12.40
2023-02-21T17:16:04.260Z,14.70
2023-02-21T17:19:26.410Z,6.10
2023-02-21T17:23:04.642Z,9.50
2023-02-21T17:27:02.252Z,14.40
2023-02-21T17:30:26.160Z,13.80
2023-02-21T17:34:03.175Z,17.60
2023-02-21T17:37:42.147Z,17.00
2023-02-21T17:41:19.757Z,11.60
2023-02-21T17:45:00.826Z,11.80
2023-02-21T17:48:33.411Z,14.90
2023-02-21T17:52:12.410Z,11.90
2023-02-21T17:56:07.451Z,13.70
2023-02-21T17:59:29.501Z,15.90
2023-02-21T18:03:08.486Z,6.70
2023-02-21T18:06:44.951Z,8.50
2023-02-21T18:10:45.779Z,9.00
2023-02-21T18:14:29.636Z,8.70
2023-02-21T18:17:51.053Z,7.90
2023-02-21T18:21:49.458Z,8.20
2023-02-21T18:25:33.536Z,7.20
2023-02-21T18:29:16.491Z,7.80
2023-02-21T18:32:38.670Z,12.90
2023-02-21T18:36:40.126Z,9.30
2023-02-21T18:40:09.020Z,10.60
2023-02-21T18:43:43.192Z,14.50
2023-02-21T18:47:22.020Z,10.70
2023-02-21T18:50:55.800Z,5.80
2023-02-21T18:54:34.116Z,8.50
2023-02-21T18:58:12.297Z,9.60
2023-02-21T19:01:51.705Z,10.10
2023-02-21T19:05:28.212Z,14.30
2023-02-21T19:09:04.419Z,12.80
2023-02-21T19:12:41.995Z,13.10
2023-02-21T19:16:20.267Z,15.00
2023-02-21T19:19:57.511Z,12.70
2023-02-21T19:23:53.755Z,15.30
2023-02-21T19:27:34.709Z,11.90
2023-02-21T19:30:56.681Z,13.20
2023-02-21T19:34:35.334Z,9.30
2023-02-21T19:38:30.879Z,17.40
2023-02-21T19:42:12.060Z,13.00
2023-02-21T19:45:34.893Z,9.70
2023-02-21T19:49:31.168Z,17.80
2023-02-21T19:52:56.396Z,14.30
2023-02-21T19:56:31.136Z,16.20
2023-02-21T20:00:27.540Z,10.10
2023-02-21T20:03:51.301Z,16.20
2023-02-21T20:07:46.830Z,12.50
2023-02-21T20:11:28.240Z,15.70
2023-02-21T20:15:10.211Z,12.00
2023-02-21T20:18:53.817Z,18.00
2023-02-21T20:22:15.973Z,13.10
2023-02-21T20:25:54.022Z,13.80
2023-02-21T20:29:50.319Z,14.90
2023-02-21T20:33:15.225Z,13.50
2023-02-21T20:37:11.366Z,7.10
2023-02-21T20:40:34.765Z,11.50
2023-02-21T20:44:37.309Z,14.80
2023-02-21T20:47:59.786Z,6.90
2023-02-21T20:51:43.349Z,11.90
2023-02-21T20:55:18.812Z,9.70
2023-02-21T20:58:55.109Z,9.60
2023-02-21T21:02:54.316Z,14.10
2023-02-21T21:06:18.475Z,12.90
2023-02-21T21:09:54.583Z,17.90
2023-02-21T21:13:32.221Z,15.10
2023-02-21T21:17:16.674Z,16.50
2023-02-21T21:20:49.778Z,15.90
2023-02-21T21:24:25.182Z,13.30
2023-02-21T21:28:21.905Z,17.50
2023-02-21T21:31:51.877Z,10.40
2023-02-21T21:35:40.540Z,14.90
2023-02-21T21:39:04.215Z,14.40
2023-02-21T21:42:44.177Z,11.10
2023-02-21T21:46:19.916Z,17.90
2023-02-21T21:49:56.722Z,11.90
2023-02-21T21:53:34.232Z,16.00
2023-02-21T21:57:35.330Z,23.40
2023-02-21T22:01:01.126Z,12.70
2023-02-21T22:04:54.122Z,19.90
2023-02-21T22:08:17.204Z,15.00
2023-02-21T22:12:17.884Z,12.30
2023-02-21T22:15:44.234Z,13.30
2023-02-21T22:19:21.385Z,12.00
2023-02-21T22:22:58.625Z,12.40
2023-02-21T22:26:33.705Z,10.70
2023-02-21T22:30:13.737Z,15.50
2023-02-21T22:34:08.364Z,14.10
2023-02-21T22:37:30.824Z,22.30
2023-02-21T22:41:32.749Z,11.10
2023-02-21T22:44:54.980Z,14.80
2023-02-21T22:48:52.637Z,17.20
2023-02-21T22:52:34.763Z,17.90
2023-02-21T22:56:00.062Z,15.10
2023-02-21T22:59:57.021Z,12.80
2023-02-21T23:03:41.870Z,14.50
2023-02-21T23:07:04.115Z,13.70
2023-02-21T23:11:01.229Z,16.40
2023-02-21T23:14:42.083Z,12.30
2023-02-21T23:18:04.166Z,13.00
2023-02-21T23:21:53.060Z,11.60
2023-02-21T23:25:38.156Z,16.10
2023-02-21T23:29:00.457Z,16.70
2023-02-21T23:32:37.909Z,13.40
2023-02-21T23:36:38.606Z,16.00
2023-02-21T23:40:01.965Z,19.00
2023-02-21T23:43:40.039Z,14.00
2023-02-21T23:47:41.333Z,11.50
2023-02-21T23:51:03.649Z,22.40
2023-02-21T23:54:59.855Z,16.30
2023-02-21T23:58:44.593Z,23.40
